createdAt,value
2023-03-29T05:48:59.600Z,101014.47
2023-03-29T05:51:46.084Z,101014.47
2023-03-29T05:54:31.455Z,101021.56
2023-03-29T05:57:16.997Z,101021.09
2023-03-29T06:00:16.902Z,101026.75
2023-03-29T06:03:13.694Z,101026.75
2023-03-29T06:06:05.923Z,101024.59
2023-03-29T06:08:51.986Z,101037.31
2023-03-29T06:11:37.233Z,101043.37
2023-03-29T06:14:24.476Z,101044.28
2023-03-29T06:17:09.568Z,101017.91
2023-03-29T06:19:54.798Z,101048.91
2023-03-29T06:22:41.547Z,101057.00
2023-03-29T06:25:27.063Z,101063.87
2023-03-29T06:28:13.130Z,101050.56
2023-03-29T06:31:03.796Z,101040.53
2023-03-29T06:33:50.940Z,101062.41
2023-03-29T06:36:36.598Z,101059.81
2023-03-29T06:39:23.230Z,101060.19
2023-03-29T06:42:20.208Z,101056.75
2023-03-29T06:45:07.405Z,101058.66
2023-03-29T06:47:54.546Z,101053.03
2023-03-29T06:50:41.869Z,101054.41
2023-03-29T06:53:28.206Z,101064.31
2023-03-29T06:56:14.756Z,101068.19
2023-03-29T06:59:00.458Z,101058.22
2023-03-29T07:01:47.321Z,101070.69
2023-03-29T07:04:33.485Z,101060.91
2023-03-29T07:07:22.363Z,101070.41
2023-03-29T07:10:08.359Z,101059.91
2023-03-29T07:12:54.657Z,101063.13
2023-03-29T07:15:41.558Z,101068.13
2023-03-29T07:18:27.073Z,101068.38
2023-03-29T07:21:14.285Z,101065.75
2023-03-29T07:23:59.661Z,101073.44
2023-03-29T07:27:00.284Z,101069.06
2023-03-29T07:29:50.405Z,101055.25
2023-03-29T07:32:39.058Z,101052.16
2023-03-29T07:35:25.717Z,101074.47
2023-03-29T07:38:12.249Z,101077.53
2023-03-29T07:41:04.271Z,101078.44
2023-03-29T07:43:54.463Z,101082.91
2023-03-29T07:46:40.414Z,101077.31
2023-03-29T07:49:26.414Z,101070.06
2023-03-29T07:52:11.902Z,101069.81
2023-03-29T07:54:57.737Z,101055.06
2023-03-29T07:57:44.389Z,101062.56
2023-03-29T08:00:29.837Z,101044.69
2023-03-29T08:03:15.712Z,101058.59
2023-03-29T08:06:03.144Z,101049.34
2023-03-29T08:08:50.689Z,101052.53
2023-03-29T08:11:42.074Z,101051.16
2023-03-29T08:14:28.882Z,101038.41
2023-03-29T08:17:14.449Z,101045.28
2023-03-29T08:20:01.333Z,101045.06
2023-03-29T08:22:46.700Z,101057.41
2023-03-29T08:25:33.208Z,101058.50
2023-03-29T08:28:19.857Z,101059.00
2023-03-29T08:31:07.701Z,101057.25
2023-03-29T08:33:56.213Z,101052.66
2023-03-29T08:36:43.298Z,101041.44
2023-03-29T08:39:29.309Z,101049.38
2023-03-29T08:42:30.630Z,101036.13
2023-03-29T08:45:37.108Z,101052.38
2023-03-29T08:48:27.387Z,101035.09
2023-03-29T08:51:17.406Z,101014.50
2023-03-29T08:54:06.561Z,101042.62
2023-03-29T08:56:53.371Z,101063.25
2023-03-29T08:59:39.865Z,101048.50
2023-03-29T09:02:27.857Z,101039.22
2023-03-29T09:05:35.790Z,101033.59
2023-03-29T09:08:21.564Z,101038.56
2023-03-29T09:11:22.438Z,101032.56
2023-03-29T09:14:39.367Z,101028.19
2023-03-29T09:17:34.987Z,101028.72
2023-03-29T09:20:22.141Z,101032.50
2023-03-29T09:23:52.565Z,101032.22
2023-03-29T09:26:59.055Z,101010.28
2023-03-29T09:29:59.398Z,101032.22
2023-03-29T09:32:52.155Z,101017.34
2023-03-29T09:36:05.974Z,101026.38
2023-03-29T09:38:54.607Z,101018.09
2023-03-29T09:41:44.915Z,101020.03
2023-03-29T09:44:36.803Z,101024.22
2023-03-29T09:47:26.418Z,101022.56
2023-03-29T09:50:30.752Z,101003.78
2023-03-29T09:53:19.151Z,101006.69
2023-03-29T09:56:05.130Z,101007.94
2023-03-29T09:58:50.843Z,101003.94
2023-03-29T10:01:39.949Z,100996.78
2023-03-29T10:04:26.126Z,100986.50
2023-03-29T10:07:19.018Z,100988.84
2023-03-29T10:10:08.343Z,100987.69
2023-03-29T10:12:57.538Z,100987.59
2023-03-29T10:15:43.445Z,100965.03
2023-03-29T10:18:31.016Z,100974.56
2023-03-29T10:21:17.163Z,100975.94
2023-03-29T10:24:03.754Z,100973.28
2023-03-29T10:26:55.762Z,100973.03
2023-03-29T10:29:43.173Z,100972.78
2023-03-29T10:32:45.138Z,100957.44
2023-03-29T10:35:40.280Z,100943.47
2023-03-29T10:38:28.423Z,100940.72
2023-03-29T10:41:13.896Z,100940.34
2023-03-29T10:44:01.113Z,100935.16
2023-03-29T10:46:46.704Z,100923.34
2023-03-29T10:49:40.539Z,100915.34
2023-03-29T10:52:26.748Z,100918.59
2023-03-29T10:55:14.997Z,100915.09
2023-03-29T10:58:29.279Z,100915.63
2023-03-29T11:01:21.160Z,100916.69
2023-03-29T11:04:19.336Z,100911.16
2023-03-29T11:07:23.708Z,100901.75
2023-03-29T11:10:24.797Z,100905.59
2023-03-29T11:13:24.953Z,100894.37
2023-03-29T11:16:13.193Z,100899.84
2023-03-29T11:19:01.652Z,100903.12
2023-03-29T11:22:10.425Z,100904.84
2023-03-29T11:25:16.952Z,100896.75
2023-03-29T11:28:07.816Z,100893.28
2023-03-29T11:30:56.285Z,100895.31
2023-03-29T11:33:56.795Z,100888.63
2023-03-29T11:36:51.475Z,100881.53
2023-03-29T11:40:21.878Z,100877.47
2023-03-29T11:43:20.591Z,100868.19
2023-03-29T11:46:11.373Z,100871.75
2023-03-29T11:49:09.169Z,100868.06
2023-03-29T11:52:59.657Z,100858.09
2023-03-29T11:55:45.541Z,100841.78
2023-03-29T11:58:38.750Z,100833.56
2023-03-29T12:01:54.718Z,100831.06
2023-03-29T12:04:46.017Z,100830.81
2023-03-29T12:07:52.499Z,100828.81
2023-03-29T12:10:44.449Z,100831.81
2023-03-29T12:13:44.024Z,100815.44
2023-03-29T12:16:39.729Z,100827.00
2023-03-29T12:19:32.732Z,100824.41
2023-03-29T12:22:18.069Z,100818.09
2023-03-29T12:25:06.502Z,100813.28
2023-03-29T12:28:00.965Z,100811.28
2023-03-29T12:31:09.536Z,100800.13
2023-03-29T12:34:10.513Z,100801.62
2023-03-29T12:37:23.465Z,100803.06
